createdAt,value
2018-01-14T00:01:11.502Z,98.40
2018-01-14T00:03:42.836Z,98.50
2018-01-14T00:06:14.132Z,98.40
2018-01-14T00:08:46.122Z,98.20
2018-01-14T00:11:17.511Z,98.10
2018-01-14T00:13:48.519Z,98.10
2018-01-14T00:16:19.243Z,97.80
2018-01-14T00:25:02.095Z,97.80
2018-01-14T00:27:32.880Z,97.90
2018-01-14T00:30:03.971Z,98.00
2018-01-14T00:32:35.244Z,98.30
2018-01-14T00:35:06.925Z,97.70
2018-01-14T00:37:38.413Z,97.90
2018-01-14T00:40:09.651Z,97.90
2018-01-14T00:42:39.868Z,98.20
2018-01-14T00:45:11.688Z,98.30
2018-01-14T00:47:42.382Z,98.50
2018-01-14T00:50:14.832Z,98.40
2018-01-14T00:52:45.991Z,98.30
2018-01-14T00:55:18.012Z,98.30
2018-01-14T00:57:49.645Z,98.70
2018-01-14T01:00:20.543Z,98.70
2018-01-14T01:02:51.975Z,98.60
2018-01-14T01:05:24.063Z,98.90
2018-01-14T01:07:55.311Z,98.90
2018-01-14T01:10:26.473Z,98.90
2018-01-14T01:12:57.652Z,98.70
2018-01-14T01:15:28.511Z,98.60
2018-01-14T01:17:59.357Z,98.20
2018-01-14T01:20:31.018Z,98.20
2018-01-14T01:23:01.911Z,97.70
2018-01-14T01:25:33.472Z,98.10
2018-01-14T01:28:04.647Z,98.00
2018-01-14T01:30:35.471Z,98.10
2018-01-14T01:33:07.085Z,97.90
2018-01-14T01:35:37.750Z,97.80
2018-01-14T01:38:09.334Z,98.10
2018-01-14T01:40:40.087Z,98.10
2018-01-14T01:43:10.740Z,98.10
2018-01-14T01:45:42.071Z,98.00
2018-01-14T01:48:13.965Z,97.70
2018-01-14T01:57:28.915Z,97.80
2018-01-14T01:59:59.872Z,97.50
2018-01-14T02:02:30.755Z,97.60
2018-01-14T02:05:01.459Z,97.20
2018-01-14T02:11:32.858Z,97.70
2018-01-14T02:14:02.228Z,97.90
2018-01-14T02:16:33.100Z,97.90
2018-01-14T02:19:02.925Z,97.40
2018-01-14T02:21:33.679Z,97.70
2018-01-14T02:24:04.248Z,97.30
2018-01-14T02:26:34.124Z,97.60
2018-01-14T02:29:05.482Z,97.70
2018-01-14T02:31:38.156Z,97.50
2018-01-14T02:34:07.493Z,97.40
2018-01-14T02:36:36.701Z,97.60
2018-01-14T02:39:08.492Z,97.90
2018-01-14T02:41:39.808Z,97.90
2018-01-14T02:44:09.970Z,97.70
2018-01-14T02:46:41.219Z,97.70
2018-01-14T02:49:13.954Z,97.20
2018-01-14T02:51:47.001Z,97.40
2018-01-14T02:54:16.257Z,97.20
2018-01-14T02:56:46.064Z,97.30
2018-01-14T02:59:16.708Z,97.30
2018-01-14T03:01:49.230Z,97.20
2018-01-14T03:04:19.917Z,97.20
2018-01-14T03:07:02.562Z,97.50
2018-01-14T03:09:33.906Z,97.50
2018-01-14T03:12:05.734Z,97.80
2018-01-14T03:14:36.784Z,97.20
2018-01-14T03:17:12.954Z,97.30
2018-01-14T03:19:43.943Z,97.50
2018-01-14T03:22:14.717Z,97.20
2018-01-14T03:24:45.171Z,97.60
2018-01-14T03:27:16.346Z,97.30
2018-01-14T03:29:49.782Z,97.10
2018-01-14T03:32:22.048Z,97.20
2018-01-14T03:34:53.681Z,97.20
2018-01-14T03:37:24.096Z,97.20
2018-01-14T03:39:55.543Z,97.40
2018-01-14T03:42:27.067Z,97.20
2018-01-14T03:45:00.439Z,97.20
2018-01-14T03:47:32.001Z,97.10
2018-01-14T03:50:02.368Z,97.10
2018-01-14T03:52:54.817Z,97.10
2018-01-14T03:55:25.734Z,97.10
2018-01-14T03:57:56.765Z,97.30
2018-01-14T04:00:28.397Z,96.80
2018-01-14T04:03:01.251Z,97.30
2018-01-14T04:05:33.943Z,97.40
2018-01-14T04:08:05.348Z,97.20
2018-01-14T04:10:36.020Z,97.00
2018-01-14T04:13:08.177Z,96.80
2018-01-14T04:15:38.765Z,97.20
2018-01-14T04:18:09.626Z,96.60
2018-01-14T04:20:41.486Z,96.70
2018-01-14T04:23:46.451Z,96.70
2018-01-14T04:26:19.616Z,96.80
2018-01-14T04:28:50.603Z,96.80
2018-01-14T04:31:22.500Z,97.20
2018-01-14T04:33:53.850Z,97.20
2018-01-14T04:36:25.847Z,96.50
2018-01-14T04:39:17.909Z,96.70
2018-01-14T04:41:50.679Z,96.90
2018-01-14T04:44:22.595Z,96.90
2018-01-14T04:46:55.352Z,97.00
2018-01-14T04:49:26.120Z,96.70
2018-01-14T04:51:57.856Z,96.30
2018-01-14T04:54:31.403Z,96.40
2018-01-14T04:57:02.301Z,95.90
2018-01-14T04:59:33.801Z,96.20
2018-01-14T05:02:04.871Z,96.40
2018-01-14T05:04:37.323Z,96.50
2018-01-14T05:07:08.142Z,96.30
2018-01-14T05:09:39.066Z,96.20
2018-01-14T05:12:11.281Z,96.60
2018-01-14T05:14:42.097Z,96.60
2018-01-14T05:17:13.038Z,96.20
2018-01-14T05:19:45.618Z,96.80
2018-01-14T05:22:17.660Z,96.80
2018-01-14T05:25:37.218Z,96.60
2018-01-14T05:28:08.475Z,96.60
2018-01-14T05:30:39.588Z,96.80
2018-01-14T05:33:10.408Z,96.90
2018-01-14T05:35:41.434Z,96.50
2018-01-14T05:38:12.325Z,96.70
2018-01-14T05:40:43.937Z,97.00
2018-01-14T05:43:15.079Z,96.80
2018-01-14T05:45:46.672Z,97.40
2018-01-14T05:48:17.369Z,97.00
2018-01-14T05:50:48.110Z,96.90
2018-01-14T05:53:19.428Z,96.90
2018-01-14T05:55:50.177Z,97.00
2018-01-14T05:58:22.328Z,97.10
2018-01-14T06:00:53.567Z,97.10
2018-01-14T06:03:25.198Z,96.90
2018-01-14T06:05:56.017Z,96.90
2018-01-14T06:08:26.702Z,97.20
2018-01-14T06:10:58.072Z,97.40
2018-01-14T06:13:28.488Z,97.10
2018-01-14T06:16:00.039Z,97.50
2018-01-14T06:18:31.432Z,97.60
2018-01-14T06:21:02.999Z,97.40
2018-01-14T06:23:35.726Z,97.30
2018-01-14T06:26:07.538Z,97.30
2018-01-14T06:28:39.435Z,97.50
2018-01-14T06:31:11.107Z,97.60
2018-01-14T06:33:44.708Z,97.60
2018-01-14T06:36:15.501Z,98.00
2018-01-14T06:38:48.376Z,97.70
2018-01-14T06:41:40.966Z,98.20
2018-01-14T06:44:11.912Z,98.20
2018-01-14T06:46:42.785Z,98.20
2018-01-14T06:49:51.617Z,98.30
2018-01-14T06:52:24.587Z,98.70
2018-01-14T06:54:53.922Z,98.70
2018-01-14T06:57:26.946Z,98.80
2018-01-14T06:59:57.999Z,98.80
2018-01-14T07:02:29.013Z,98.60
2018-01-14T07:04:59.867Z,98.60
2018-01-14T07:07:31.297Z,98.50
2018-01-14T07:10:02.104Z,98.50
2018-01-14T07:13:13.653Z,98.40
2018-01-14T07:15:44.934Z,98.40
2018-01-14T07:18:15.980Z,98.40
2018-01-14T07:20:48.896Z,98.20
2018-01-14T07:23:20.189Z,98.10
2018-01-14T07:25:51.142Z,98.20
2018-01-14T07:28:20.248Z,98.50
2018-01-14T07:30:54.185Z,98.20
2018-01-14T07:33:27.669Z,97.90
2018-01-14T07:36:01.592Z,97.90
2018-01-14T07:38:32.302Z,98.10
2018-01-14T07:41:11.445Z,98.40
2018-01-14T07:43:42.492Z,98.50
2018-01-14T07:46:11.019Z,98.60
2018-01-14T07:48:42.041Z,98.60
2018-01-14T07:51:13.243Z,98.70
2018-01-14T07:53:44.738Z,98.90
2018-01-14T07:56:16.481Z,98.70
2018-01-14T07:58:47.923Z,98.70
2018-01-14T08:01:18.996Z,98.20
2018-01-14T08:03:50.972Z,97.50
2018-01-14T08:06:23.222Z,97.60
2018-01-14T08:08:54.021Z,97.70
2018-01-14T08:11:26.335Z,97.50
2018-01-14T08:13:58.976Z,97.50
2018-01-14T08:16:30.945Z,97.00
2018-01-14T08:19:05.311Z,97.40
2018-01-14T08:21:36.723Z,97.30
2018-01-14T08:24:07.034Z,97.10
2018-01-14T08:26:38.099Z,96.60
2018-01-14T08:29:49.362Z,96.60
2018-01-14T08:32:20.419Z,96.90
2018-01-14T08:34:51.117Z,97.20
2018-01-14T08:37:20.933Z,97.10
2018-01-14T08:39:52.939Z,97.10
2018-01-14T08:42:23.838Z,96.90
2018-01-14T08:44:54.601Z,96.80
2018-01-14T08:47:24.721Z,97.00
2018-01-14T08:49:57.412Z,97.40
2018-01-14T08:52:30.669Z,97.20
2018-01-14T08:55:03.996Z,97.30
2018-01-14T08:57:35.727Z,97.30
2018-01-14T09:07:11.754Z,97.80
2018-01-14T09:09:43.146Z,97.50
2018-01-14T09:12:14.237Z,97.50
2018-01-14T09:15:06.827Z,97.60
2018-01-14T09:17:37.776Z,98.00
2018-01-14T09:20:09.042Z,97.60
2018-01-14T09:22:39.254Z,97.40
2018-01-14T09:25:12.817Z,98.20
2018-01-14T09:27:43.029Z,98.10
2018-01-14T09:30:14.415Z,98.00
2018-01-14T09:32:49.903Z,97.90
2018-01-14T09:35:23.111Z,97.30
2018-01-14T09:37:58.115Z,97.40
2018-01-14T09:40:35.558Z,97.50
2018-01-14T09:43:06.646Z,97.40
2018-01-14T09:45:44.797Z,96.80
2018-01-14T09:48:19.750Z,96.80
2018-01-14T09:50:51.150Z,96.80
2018-01-14T09:53:23.776Z,97.10
2018-01-14T09:55:54.790Z,96.70
2018-01-14T09:58:25.524Z,96.00
2018-01-14T10:00:57.459Z,96.10
2018-01-14T10:03:29.750Z,96.00
2018-01-14T10:06:00.542Z,96.20
2018-01-14T10:08:31.693Z,96.00
2018-01-14T10:11:02.803Z,96.00
2018-01-14T10:13:34.080Z,96.10
2018-01-14T10:19:30.106Z,95.60
2018-01-14T10:22:01.471Z,95.00
2018-01-14T10:24:32.452Z,95.00
2018-01-14T10:27:05.905Z,95.20
2018-01-14T10:29:38.039Z,94.60
2018-01-14T10:32:08.647Z,94.20
2018-01-14T10:34:37.674Z,95.20
2018-01-14T10:37:07.169Z,94.60
2018-01-14T10:39:37.774Z,95.00
2018-01-14T10:42:08.482Z,94.70
2018-01-14T10:44:39.354Z,94.40
2018-01-14T10:47:10.327Z,93.60
2018-01-14T10:49:41.429Z,93.20
2018-01-14T10:52:12.661Z,93.30
2018-01-14T10:54:42.076Z,93.70
2018-01-14T10:57:14.128Z,93.20
2018-01-14T10:59:45.469Z,93.40
2018-01-14T11:02:37.779Z,93.80
2018-01-14T11:05:09.318Z,93.10
2018-01-14T11:07:59.203Z,93.00
2018-01-14T11:10:36.809Z,93.00
2018-01-14T11:13:18.738Z,92.00
2018-01-14T11:16:13.274Z,93.20
2018-01-14T11:38:05.829Z,91.40
2018-01-14T11:40:37.016Z,91.30
2018-01-14T11:43:06.877Z,91.70
2018-01-14T11:45:39.248Z,90.90
2018-01-14T11:48:13.552Z,91.00
2018-01-14T11:50:43.883Z,91.10
2018-01-14T11:53:37.968Z,91.10
2018-01-14T11:56:10.173Z,90.30
2018-01-14T11:58:54.889Z,91.60
2018-01-14T12:01:37.979Z,91.40
2018-01-14T12:04:15.050Z,91.50
2018-01-14T12:06:50.000Z,91.20
2018-01-14T12:09:34.950Z,91.80
2018-01-14T12:12:31.348Z,90.40
2018-01-14T12:15:04.749Z,90.80
2018-01-14T12:17:37.353Z,90.80
2018-01-14T12:20:06.721Z,90.00
2018-01-14T12:22:37.146Z,87.60
2018-01-14T12:25:06.224Z,90.50
2018-01-14T12:27:39.289Z,91.40
2018-01-14T12:30:07.764Z,90.90
2018-01-14T12:33:12.903Z,90.90
2018-01-14T12:35:45.430Z,90.70
2018-01-14T12:38:14.996Z,90.60
2018-01-14T12:40:44.675Z,90.20
2018-01-14T12:43:16.090Z,90.30
2018-01-14T12:45:49.558Z,91.00
2018-01-14T12:48:23.063Z,91.00
2018-01-14T12:50:53.571Z,90.20
2018-01-14T12:53:22.790Z,90.60
2018-01-14T12:55:53.465Z,90.90
2018-01-14T12:58:23.488Z,91.80
2018-01-14T13:00:53.018Z,91.30
2018-01-14T13:07:23.418Z,90.90
2018-01-14T13:09:59.786Z,90.50
2018-01-14T13:12:37.808Z,91.00
2018-01-14T13:15:12.125Z,91.10
2018-01-14T13:17:43.170Z,91.00
2018-01-14T13:20:53.503Z,90.50
2018-01-14T13:23:29.309Z,90.50
2018-01-14T13:26:02.915Z,88.60
2018-01-14T13:28:34.744Z,90.40
2018-01-14T13:31:03.875Z,90.10
2018-01-14T13:37:36.308Z,87.10
2018-01-14T13:40:10.887Z,87.30
2018-01-14T13:42:45.549Z,87.20
2018-01-14T13:45:17.984Z,86.90
2018-01-14T13:47:48.148Z,86.70
2018-01-14T13:50:17.304Z,86.80
2018-01-14T13:52:47.385Z,87.30
2018-01-14T13:55:17.869Z,87.30
2018-01-14T13:57:47.475Z,88.90
2018-01-14T14:00:17.201Z,87.70
2018-01-14T14:02:48.532Z,85.80
2018-01-14T14:05:18.381Z,84.40
2018-01-14T14:07:49.063Z,84.30
2018-01-14T14:10:19.312Z,83.40
2018-01-14T14:12:49.841Z,89.40
2018-01-14T14:15:19.324Z,89.00
2018-01-14T14:17:48.737Z,86.80
2018-01-14T14:20:18.611Z,87.50
2018-01-14T14:23:01.600Z,89.70
2018-01-14T14:25:30.753Z,89.70
2018-01-14T14:28:16.590Z,89.30
2018-01-14T14:30:52.558Z,90.80
2018-01-14T14:33:23.083Z,91.20
2018-01-14T14:35:52.663Z,90.80
2018-01-14T14:38:22.638Z,90.80
2018-01-14T14:41:01.355Z,90.30
2018-01-14T14:43:31.265Z,91.40
2018-01-14T14:46:00.875Z,91.20
2018-01-14T14:48:32.056Z,90.70
2018-01-14T14:51:02.011Z,90.10
2018-01-14T14:53:33.025Z,87.90
2018-01-14T14:56:08.212Z,91.10
2018-01-14T14:58:42.670Z,90.40
2018-01-14T15:01:12.062Z,90.60
2018-01-14T15:03:41.815Z,91.40
2018-01-14T15:09:35.688Z,92.60
2018-01-14T15:12:07.172Z,91.20
2018-01-14T15:14:39.918Z,91.10
2018-01-14T15:17:13.176Z,91.60
2018-01-14T15:19:43.771Z,92.00
2018-01-14T15:22:12.763Z,92.10
2018-01-14T15:24:43.480Z,92.40
2018-01-14T15:27:12.652Z,92.60
2018-01-14T15:29:43.528Z,93.30
2018-01-14T15:32:14.050Z,92.90
2018-01-14T15:34:45.484Z,93.20
2018-01-14T15:37:36.047Z,93.50
2018-01-14T15:40:05.649Z,93.80
2018-01-14T15:42:38.504Z,93.60
2018-01-14T15:45:10.974Z,93.90
2018-01-14T15:47:45.200Z,94.30
2018-01-14T15:50:17.199Z,94.60
2018-01-14T15:52:47.422Z,93.80
2018-01-14T15:55:18.762Z,94.00
2018-01-14T15:57:48.287Z,94.20
2018-01-14T16:00:18.033Z,93.10
2018-01-14T16:02:47.266Z,93.10
2018-01-14T16:05:17.424Z,92.90
2018-01-14T16:07:48.734Z,92.90
2018-01-14T16:10:21.906Z,92.70
2018-01-14T16:12:54.145Z,93.60
2018-01-14T16:15:24.378Z,93.50
2018-01-14T16:17:55.122Z,93.50
2018-01-14T16:20:23.678Z,93.80
2018-01-14T16:23:16.565Z,94.10
2018-01-14T16:25:46.143Z,94.20
2018-01-14T16:28:18.069Z,93.40
2018-01-14T16:30:49.401Z,93.30
2018-01-14T16:33:19.353Z,92.90
2018-01-14T16:35:48.669Z,93.80
2018-01-14T16:38:18.415Z,94.10
2018-01-14T16:40:49.980Z,93.90
2018-01-14T16:43:23.462Z,94.10
2018-01-14T16:45:54.528Z,94.10
2018-01-14T16:48:25.768Z,94.30
2018-01-14T16:50:54.845Z,94.20
2018-01-14T16:53:26.652Z,94.40
2018-01-14T16:55:57.170Z,95.10
2018-01-14T16:58:26.783Z,95.20
2018-01-14T17:00:57.125Z,95.60
2018-01-14T17:03:28.149Z,96.20
2018-01-14T17:05:57.839Z,95.80
2018-01-14T17:09:05.020Z,95.70
2018-01-14T17:11:33.986Z,96.00
2018-01-14T17:14:05.145Z,96.40
2018-01-14T17:16:35.048Z,97.30
2018-01-14T17:19:06.332Z,97.00
2018-01-14T17:21:39.353Z,97.30
2018-01-14T17:24:09.849Z,97.10
2018-01-14T17:26:41.913Z,97.30
2018-01-14T17:29:11.823Z,97.70
2018-01-14T17:31:41.148Z,98.20
2018-01-14T17:34:10.668Z,98.50
2018-01-14T17:36:41.347Z,98.40
2018-01-14T17:39:51.820Z,98.40
2018-01-14T17:42:23.840Z,98.30
2018-01-14T17:44:55.587Z,98.20
2018-01-14T17:47:28.440Z,97.60
2018-01-14T17:50:00.756Z,97.60
2018-01-14T17:52:31.668Z,97.90
2018-01-14T17:55:23.297Z,97.70
2018-01-14T17:57:54.738Z,97.80
2018-01-14T18:00:25.866Z,97.90
2018-01-14T18:02:56.772Z,97.10
2018-01-14T18:05:28.167Z,96.90
2018-01-14T18:08:00.327Z,96.70
2018-01-14T18:10:32.535Z,96.70
2018-01-14T18:13:03.684Z,96.70
2018-01-14T18:15:37.440Z,97.10
2018-01-14T18:18:09.890Z,97.10
2018-01-14T18:20:42.583Z,97.00
2018-01-14T18:23:13.700Z,96.80
2018-01-14T18:26:25.412Z,96.70
2018-01-14T18:28:54.820Z,96.60
2018-01-14T18:31:25.788Z,96.00
2018-01-14T18:33:56.621Z,95.50
2018-01-14T18:36:25.766Z,95.30
2018-01-14T18:38:57.623Z,95.70
2018-01-14T18:44:49.506Z,95.70
2018-01-14T18:47:19.148Z,95.80
2018-01-14T18:49:48.310Z,95.70
2018-01-14T18:52:19.161Z,95.40
2018-01-14T18:55:22.905Z,95.40
2018-01-14T18:58:12.194Z,95.40
2018-01-14T19:00:41.286Z,95.40
2018-01-14T19:03:11.501Z,95.00
2018-01-14T19:05:43.592Z,94.90
2018-01-14T19:08:14.557Z,95.50
2018-01-14T19:11:26.071Z,95.40
2018-01-14T19:13:54.671Z,95.90
2018-01-14T19:16:23.878Z,95.80
2018-01-14T19:18:59.206Z,96.20
2018-01-14T19:21:29.077Z,96.10
2018-01-14T19:24:00.076Z,96.50
2018-01-14T19:26:33.192Z,96.80
2018-01-14T19:29:06.441Z,96.70
2018-01-14T19:31:36.918Z,96.90
2018-01-14T19:34:06.553Z,97.10
2018-01-14T19:36:35.581Z,97.20
2018-01-14T19:39:06.769Z,97.30
2018-01-14T19:41:41.421Z,97.50
2018-01-14T19:44:19.961Z,97.50
2018-01-14T19:46:53.754Z,97.80
2018-01-14T19:49:25.337Z,97.80
2018-01-14T19:51:55.210Z,97.50
2018-01-14T19:54:28.541Z,97.60
2018-01-14T20:00:59.827Z,97.60
2018-01-14T20:03:29.044Z,97.70
2018-01-14T20:05:57.918Z,98.00
2018-01-14T20:08:27.523Z,97.80
2018-01-14T20:10:56.809Z,97.40
2018-01-14T20:13:26.448Z,97.20
2018-01-14T20:16:04.361Z,97.60
2018-01-14T20:18:32.909Z,97.30
2018-01-14T20:21:01.725Z,97.30
2018-01-14T20:23:31.943Z,97.30
2018-01-14T20:26:03.222Z,97.40
2018-01-14T20:28:35.421Z,97.20
2018-01-14T20:31:05.098Z,97.30
2018-01-14T20:33:34.407Z,97.20
2018-01-14T20:36:03.821Z,97.60
2018-01-14T20:38:34.272Z,97.60
2018-01-14T20:41:04.333Z,97.30
2018-01-14T20:43:34.787Z,97.40
2018-01-14T20:46:03.846Z,97.30
2018-01-14T20:48:33.011Z,97.20
2018-01-14T20:51:02.443Z,97.20
2018-01-14T20:53:32.839Z,97.50
2018-01-14T20:56:07.520Z,97.50
2018-01-14T20:58:36.375Z,97.40
2018-01-14T21:01:07.047Z,97.50
2018-01-14T21:03:36.618Z,97.40
2018-01-14T21:06:07.367Z,97.80
2018-01-14T21:08:39.063Z,97.40
2018-01-14T21:11:09.408Z,97.40
2018-01-14T21:13:39.885Z,97.20
2018-01-14T21:16:08.629Z,97.50
2018-01-14T21:18:37.546Z,97.40
2018-01-14T21:21:07.239Z,96.90
2018-01-14T21:23:38.218Z,97.20
2018-01-14T21:26:08.538Z,97.30
2018-01-14T21:28:39.392Z,97.20
2018-01-14T21:31:09.962Z,96.90
2018-01-14T21:33:42.004Z,97.30
2018-01-14T21:36:11.098Z,97.30
2018-01-14T21:38:40.910Z,97.20
2018-01-14T21:41:10.551Z,97.40
2018-01-14T21:43:45.527Z,97.00
2018-01-14T21:46:16.615Z,97.20
2018-01-14T21:48:45.969Z,97.30
2018-01-14T21:51:16.768Z,97.40
2018-01-14T21:53:45.952Z,97.40
2018-01-14T21:56:15.828Z,97.50
2018-01-14T21:58:46.084Z,97.70
2018-01-14T22:01:16.222Z,97.60
2018-01-14T22:03:51.562Z,97.60
2018-01-14T22:06:27.943Z,97.50
2018-01-14T22:09:01.107Z,97.50
2018-01-14T22:11:31.140Z,97.80
2018-01-14T22:14:05.450Z,97.50
2018-01-14T22:16:34.074Z,97.30
2018-01-14T22:19:05.258Z,97.80
2018-01-14T22:21:33.806Z,97.80
2018-01-14T22:24:04.164Z,97.70
2018-01-14T22:26:34.385Z,97.80
2018-01-14T22:33:06.887Z,98.00
2018-01-14T22:35:37.016Z,97.70
2018-01-14T22:38:10.295Z,97.90
2018-01-14T22:40:41.985Z,97.80
2018-01-14T22:43:28.999Z,97.40
2018-01-14T22:45:58.452Z,97.60
2018-01-14T22:48:32.541Z,97.60
2018-01-14T22:51:05.739Z,97.40
2018-01-14T22:53:37.428Z,97.50
2018-01-14T22:56:08.657Z,97.60
2018-01-14T22:58:38.999Z,97.70
2018-01-14T23:01:09.364Z,97.90
2018-01-14T23:03:39.061Z,97.80
2018-01-14T23:06:09.671Z,97.70
2018-01-14T23:08:41.777Z,97.80
2018-01-14T23:11:12.833Z,97.90
2018-01-14T23:13:44.089Z,97.90
2018-01-14T23:16:12.929Z,98.10
2018-01-14T23:18:43.332Z,97.80
2018-01-14T23:21:12.946Z,97.80
2018-01-14T23:23:44.453Z,97.90
2018-01-14T23:26:15.867Z,98.00
2018-01-14T23:29:25.526Z,98.10
2018-01-14T23:31:55.714Z,98.00
2018-01-14T23:34:27.611Z,97.90
2018-01-14T23:36:57.550Z,98.30
2018-01-14T23:39:26.475Z,98.00
2018-01-14T23:41:55.918Z,98.20
2018-01-14T23:44:26.469Z,98.30
2018-01-14T23:46:57.473Z,98.50
2018-01-14T23:49:29.163Z,98.30
2018-01-14T23:51:59.237Z,98.50
2018-01-14T23:54:30.296Z,98.70
2018-01-14T23:56:59.605Z,98.70
2018-01-14T23:59:30.818Z,98.80
